sensor_id;sensor_type;location;lat;lon;timestamp;P1;durP1;ratioP1;P2;durP2;ratioP2
7398;SDS011;3740;50.700;7.184;2022-09-09T00:07:51;4.00;;;1.40;;
7398;SDS011;3740;50.700;7.184;2022-09-09T00:10:38;1.77;;;1.53;;
7398;SDS011;3740;50.700;7.184;2022-09-09T00:16:58;3.33;;;1.30;;
7398;SDS011;3740;50.700;7.184;2022-09-09T00:19:55;2.10;;;1.50;;
7398;SDS011;3740;50.700;7.184;2022-09-09T00:23:20;3.40;;;1.50;;
7398;SDS011;3740;50.700;7.184;2022-09-09T00:31:45;2.47;;;1.43;;
7398;SDS011;3740;50.700;7.184;2022-09-09T00:34:32;2.73;;;1.50;;
7398;SDS011;3740;50.700;7.184;2022-09-09T00:37:19;2.00;;;1.73;;
7398;SDS011;3740;50.700;7.184;2022-09-09T00:40:18;4.00;;;1.60;;
7398;SDS011;3740;50.700;7.184;2022-09-09T00:43:31;4.70;;;2.00;;
7398;SDS011;3740;50.700;7.184;2022-09-09T00:58:46;2.97;;;1.70;;
7398;SDS011;3740;50.700;7.184;2022-09-09T01:01:51;4.93;;;1.67;;
7398;SDS011;3740;50.700;7.184;2022-09-09T01:04:40;2.60;;;1.43;;
7398;SDS011;3740;50.700;7.184;2022-09-09T01:07:27;3.33;;;1.37;;
7398;SDS011;3740;50.700;7.184;2022-09-09T01:10:17;3.47;;;1.60;;
7398;SDS011;3740;50.700;7.184;2022-09-09T01:13:14;3.70;;;1.83;;
7398;SDS011;3740;50.700;7.184;2022-09-09T01:16:10;2.60;;;1.40;;
7398;SDS011;3740;50.700;7.184;2022-09-09T01:18:56;3.20;;;1.70;;
7398;SDS011;3740;50.700;7.184;2022-09-09T01:21:49;3.80;;;1.73;;
7398;SDS011;3740;50.700;7.184;2022-09-09T01:25:29;2.60;;;1.70;;
7398;SDS011;3740;50.700;7.184;2022-09-09T01:28:14;3.40;;;1.87;;
7398;SDS011;3740;50.700;7.184;2022-09-09T01:31:05;4.23;;;2.03;;
7398;SDS011;3740;50.700;7.184;2022-09-09T01:33:54;3.60;;;2.00;;
7398;SDS011;3740;50.700;7.184;2022-09-09T01:36:47;4.57;;;2.20;;
7398;SDS011;3740;50.700;7.184;2022-09-09T01:39:47;3.37;;;1.70;;
7398;SDS011;3740;50.700;7.184;2022-09-09T01:42:33;3.43;;;1.73;;
7398;SDS011;3740;50.700;7.184;2022-09-09T01:45:19;3.10;;;1.70;;
7398;SDS011;3740;50.700;7.184;2022-09-09T01:48:07;3.47;;;1.80;;
7398;SDS011;3740;50.700;7.184;2022-09-09T01:50:53;3.80;;;1.87;;
7398;SDS011;3740;50.700;7.184;2022-09-09T01:53:39;3.27;;;1.83;;
7398;SDS011;3740;50.700;7.184;2022-09-09T02:02:24;3.53;;;1.97;;
7398;SDS011;3740;50.700;7.184;2022-09-09T02:05:22;3.57;;;1.70;;
7398;SDS011;3740;50.700;7.184;2022-09-09T02:08:31;2.20;;;1.70;;
7398;SDS011;3740;50.700;7.184;2022-09-09T02:11:28;4.70;;;2.30;;
7398;SDS011;3740;50.700;7.184;2022-09-09T02:14:16;3.27;;;1.80;;
7398;SDS011;3740;50.700;7.184;2022-09-09T02:17:08;4.78;;;2.13;;
7398;SDS011;3740;50.700;7.184;2022-09-09T02:20:04;4.30;;;1.77;;
7398;SDS011;3740;50.700;7.184;2022-09-09T02:22:53;4.73;;;2.13;;
7398;SDS011;3740;50.700;7.184;2022-09-09T02:25:41;2.57;;;1.90;;
7398;SDS011;3740;50.700;7.184;2022-09-09T02:28:29;3.27;;;2.10;;
7398;SDS011;3740;50.700;7.184;2022-09-09T02:31:17;4.20;;;1.50;;
7398;SDS011;3740;50.700;7.184;2022-09-09T02:34:06;3.97;;;1.67;;
7398;SDS011;3740;50.700;7.184;2022-09-09T02:36:56;4.33;;;2.00;;
7398;SDS011;3740;50.700;7.184;2022-09-09T02:39:44;3.33;;;1.70;;
7398;SDS011;3740;50.700;7.184;2022-09-09T02:42:31;3.70;;;2.00;;
7398;SDS011;3740;50.700;7.184;2022-09-09T02:45:19;3.50;;;1.77;;
7398;SDS011;3740;50.700;7.184;2022-09-09T02:48:16;2.83;;;1.60;;
7398;SDS011;3740;50.700;7.184;2022-09-09T02:51:06;4.97;;;2.05;;
7398;SDS011;3740;50.700;7.184;2022-09-09T02:54:00;4.37;;;1.90;;
7398;SDS011;3740;50.700;7.184;2022-09-09T02:56:51;3.75;;;2.25;;
7398;SDS011;3740;50.700;7.184;2022-09-09T02:59:42;4.45;;;2.13;;
7398;SDS011;3740;50.700;7.184;2022-09-09T03:02:29;4.17;;;1.93;;
7398;SDS011;3740;50.700;7.184;2022-09-09T03:05:15;4.43;;;2.40;;
7398;SDS011;3740;50.700;7.184;2022-09-09T03:08:02;3.33;;;2.00;;
7398;SDS011;3740;50.700;7.184;2022-09-09T03:10:50;3.37;;;2.27;;
7398;SDS011;3740;50.700;7.184;2022-09-09T03:13:37;3.03;;;2.17;;
7398;SDS011;3740;50.700;7.184;2022-09-09T03:16:23;3.90;;;2.35;;
7398;SDS011;3740;50.700;7.184;2022-09-09T03:19:09;5.40;;;2.40;;
7398;SDS011;3740;50.700;7.184;2022-09-09T03:21:55;2.87;;;1.93;;
7398;SDS011;3740;50.700;7.184;2022-09-09T03:24:41;2.97;;;2.13;;
7398;SDS011;3740;50.700;7.184;2022-09-09T03:27:27;4.67;;;1.97;;
7398;SDS011;3740;50.700;7.184;2022-09-09T03:30:13;3.53;;;2.00;;
7398;SDS011;3740;50.700;7.184;2022-09-09T03:32:59;4.10;;;2.13;;
7398;SDS011;3740;50.700;7.184;2022-09-09T03:35:47;3.27;;;1.90;;
7398;SDS011;3740;50.700;7.184;2022-09-09T03:38:33;5.90;;;2.35;;
7398;SDS011;3740;50.700;7.184;2022-09-09T03:41:20;4.63;;;2.53;;
7398;SDS011;3740;50.700;7.184;2022-09-09T03:44:09;3.05;;;2.13;;
7398;SDS011;3740;50.700;7.184;2022-09-09T03:46:54;3.33;;;2.00;;
7398;SDS011;3740;50.700;7.184;2022-09-09T03:49:40;3.10;;;2.03;;
7398;SDS011;3740;50.700;7.184;2022-09-09T03:52:26;3.23;;;1.90;;
7398;SDS011;3740;50.700;7.184;2022-09-09T03:55:12;4.20;;;2.17;;
7398;SDS011;3740;50.700;7.184;2022-09-09T03:57:58;2.70;;;1.80;;
7398;SDS011;3740;50.700;7.184;2022-09-09T04:00:58;4.17;;;1.63;;
7398;SDS011;3740;50.700;7.184;2022-09-09T04:03:45;2.87;;;1.50;;
7398;SDS011;3740;50.700;7.184;2022-09-09T04:06:31;3.10;;;1.60;;
7398;SDS011;3740;50.700;7.184;2022-09-09T04:09:17;2.63;;;1.70;;
7398;SDS011;3740;50.700;7.184;2022-09-09T04:12:03;3.97;;;2.03;;
7398;SDS011;3740;50.700;7.184;2022-09-09T04:14:49;4.20;;;1.87;;
7398;SDS011;3740;50.700;7.184;2022-09-09T04:17:35;4.47;;;1.95;;
7398;SDS011;3740;50.700;7.184;2022-09-09T04:20:21;3.60;;;1.70;;
7398;SDS011;3740;50.700;7.184;2022-09-09T04:23:08;3.83;;;2.17;;
7398;SDS011;3740;50.700;7.184;2022-09-09T04:25:54;4.63;;;2.17;;
7398;SDS011;3740;50.700;7.184;2022-09-09T04:28:41;3.33;;;1.97;;
7398;SDS011;3740;50.700;7.184;2022-09-09T04:31:27;4.57;;;1.93;;
7398;SDS011;3740;50.700;7.184;2022-09-09T04:34:13;3.80;;;2.22;;
7398;SDS011;3740;50.700;7.184;2022-09-09T04:36:58;4.20;;;2.20;;
7398;SDS011;3740;50.700;7.184;2022-09-09T04:39:45;3.63;;;2.10;;
7398;SDS011;3740;50.700;7.184;2022-09-09T04:42:34;6.53;;;2.53;;
7398;SDS011;3740;50.700;7.184;2022-09-09T04:45:21;4.70;;;2.50;;
7398;SDS011;3740;50.700;7.184;2022-09-09T04:48:07;4.60;;;2.35;;
7398;SDS011;3740;50.700;7.184;2022-09-09T04:50:54;3.40;;;2.30;;
7398;SDS011;3740;50.700;7.184;2022-09-09T04:53:44;4.20;;;1.97;;
7398;SDS011;3740;50.700;7.184;2022-09-09T04:56:32;3.77;;;2.10;;
7398;SDS011;3740;50.700;7.184;2022-09-09T04:59:18;3.43;;;2.07;;
7398;SDS011;3740;50.700;7.184;2022-09-09T05:02:04;4.27;;;2.17;;
7398;SDS011;3740;50.700;7.184;2022-09-09T05:04:50;2.83;;;1.75;;
7398;SDS011;3740;50.700;7.184;2022-09-09T05:07:36;4.30;;;2.20;;
7398;SDS011;3740;50.700;7.184;2022-09-09T05:10:22;2.80;;;2.00;;
7398;SDS011;3740;50.700;7.184;2022-09-09T05:13:08;3.90;;;2.20;;
7398;SDS011;3740;50.700;7.184;2022-09-09T05:15:54;3.75;;;1.90;;
7398;SDS011;3740;50.700;7.184;2022-09-09T05:18:40;2.70;;;1.65;;
7398;SDS011;3740;50.700;7.184;2022-09-09T05:21:31;2.22;;;2.00;;
7398;SDS011;3740;50.700;7.184;2022-09-09T05:24:17;4.20;;;2.13;;
7398;SDS011;3740;50.700;7.184;2022-09-09T05:27:02;3.05;;;1.70;;
7398;SDS011;3740;50.700;7.184;2022-09-09T05:29:51;2.93;;;1.63;;
7398;SDS011;3740;50.700;7.184;2022-09-09T05:32:37;4.17;;;1.70;;
7398;SDS011;3740;50.700;7.184;2022-09-09T05:35:23;2.90;;;1.93;;
7398;SDS011;3740;50.700;7.184;2022-09-09T05:38:08;3.50;;;1.87;;
7398;SDS011;3740;50.700;7.184;2022-09-09T05:40:54;3.00;;;1.70;;
7398;SDS011;3740;50.700;7.184;2022-09-09T05:43:44;3.17;;;2.10;;
7398;SDS011;3740;50.700;7.184;2022-09-09T05:46:30;5.33;;;2.27;;
7398;SDS011;3740;50.700;7.184;2022-09-09T05:49:16;3.75;;;2.00;;
7398;SDS011;3740;50.700;7.184;2022-09-09T05:52:02;5.22;;;2.40;;
7398;SDS011;3740;50.700;7.184;2022-09-09T05:54:49;3.92;;;2.42;;
7398;SDS011;3740;50.700;7.184;2022-09-09T05:57:35;5.88;;;2.40;;
7398;SDS011;3740;50.700;7.184;2022-09-09T06:00:21;5.80;;;2.53;;
7398;SDS011;3740;50.700;7.184;2022-09-09T06:03:09;3.70;;;2.20;;
7398;SDS011;3740;50.700;7.184;2022-09-09T06:05:59;4.07;;;2.60;;
7398;SDS011;3740;50.700;7.184;2022-09-09T06:08:46;6.72;;;2.88;;
7398;SDS011;3740;50.700;7.184;2022-09-09T06:11:34;4.77;;;2.50;;
7398;SDS011;3740;50.700;7.184;2022-09-09T06:14:21;3.63;;;2.23;;
7398;SDS011;3740;50.700;7.184;2022-09-09T06:17:07;3.33;;;2.17;;
7398;SDS011;3740;50.700;7.184;2022-09-09T06:19:53;3.27;;;1.83;;
7398;SDS011;3740;50.700;7.184;2022-09-09T06:22:39;4.50;;;1.85;;
7398;SDS011;3740;50.700;7.184;2022-09-09T06:25:26;3.63;;;2.00;;
7398;SDS011;3740;50.700;7.184;2022-09-09T06:28:12;2.90;;;1.98;;
7398;SDS011;3740;50.700;7.184;2022-09-09T06:30:59;2.73;;;2.03;;
7398;SDS011;3740;50.700;7.184;2022-09-09T06:33:45;4.57;;;1.77;;
7398;SDS011;3740;50.700;7.184;2022-09-09T06:36:32;3.17;;;1.83;;
7398;SDS011;3740;50.700;7.184;2022-09-09T06:39:20;5.43;;;2.40;;
7398;SDS011;3740;50.700;7.184;2022-09-09T06:42:06;3.13;;;1.73;;
7398;SDS011;3740;50.700;7.184;2022-09-09T06:44:53;3.07;;;1.70;;
7398;SDS011;3740;50.700;7.184;2022-09-09T06:47:39;3.30;;;2.10;;
7398;SDS011;3740;50.700;7.184;2022-09-09T06:50:26;3.73;;;1.83;;
7398;SDS011;3740;50.700;7.184;2022-09-09T06:53:12;4.68;;;2.00;;
7398;SDS011;3740;50.700;7.184;2022-09-09T06:56:02;5.57;;;2.13;;
7398;SDS011;3740;50.700;7.184;2022-09-09T06:58:55;3.80;;;1.83;;
7398;SDS011;3740;50.700;7.184;2022-09-09T07:01:43;3.40;;;1.73;;
7398;SDS011;3740;50.700;7.184;2022-09-09T07:04:29;3.30;;;1.30;;
7398;SDS011;3740;50.700;7.184;2022-09-09T07:07:15;2.97;;;1.90;;
7398;SDS011;3740;50.700;7.184;2022-09-09T07:10:01;4.40;;;2.05;;
7398;SDS011;3740;50.700;7.184;2022-09-09T07:12:52;4.03;;;2.10;;
7398;SDS011;3740;50.700;7.184;2022-09-09T07:15:38;2.92;;;1.45;;
7398;SDS011;3740;50.700;7.184;2022-09-09T07:18:24;4.50;;;2.23;;
7398;SDS011;3740;50.700;7.184;2022-09-09T07:21:10;4.47;;;2.05;;
7398;SDS011;3740;50.700;7.184;2022-09-09T07:23:58;3.80;;;1.67;;
7398;SDS011;3740;50.700;7.184;2022-09-09T07:26:45;3.73;;;2.13;;
7398;SDS011;3740;50.700;7.184;2022-09-09T07:29:31;2.33;;;1.57;;
7398;SDS011;3740;50.700;7.184;2022-09-09T07:32:17;4.47;;;2.17;;
7398;SDS011;3740;50.700;7.184;2022-09-09T07:35:05;3.25;;;2.13;;
7398;SDS011;3740;50.700;7.184;2022-09-09T07:37:51;3.92;;;2.38;;
7398;SDS011;3740;50.700;7.184;2022-09-09T07:40:37;5.28;;;2.08;;
7398;SDS011;3740;50.700;7.184;2022-09-09T07:43:25;5.82;;;1.90;;
7398;SDS011;3740;50.700;7.184;2022-09-09T07:46:17;5.07;;;1.90;;
7398;SDS011;3740;50.700;7.184;2022-09-09T07:49:05;4.80;;;2.47;;
7398;SDS011;3740;50.700;7.184;2022-09-09T07:51:51;4.53;;;1.92;;
7398;SDS011;3740;50.700;7.184;2022-09-09T07:54:37;7.03;;;2.47;;
7398;SDS011;3740;50.700;7.184;2022-09-09T07:57:23;4.35;;;1.83;;
7398;SDS011;3740;50.700;7.184;2022-09-09T08:00:09;5.40;;;2.10;;
7398;SDS011;3740;50.700;7.184;2022-09-09T08:02:56;5.25;;;2.70;;
7398;SDS011;3740;50.700;7.184;2022-09-09T08:05:41;4.95;;;2.05;;
7398;SDS011;3740;50.700;7.184;2022-09-09T08:08:28;4.30;;;2.25;;
7398;SDS011;3740;50.700;7.184;2022-09-09T08:11:15;5.70;;;2.33;;
7398;SDS011;3740;50.700;7.184;2022-09-09T08:14:02;5.55;;;2.47;;
7398;SDS011;3740;50.700;7.184;2022-09-09T08:16:49;6.55;;;2.03;;
7398;SDS011;3740;50.700;7.184;2022-09-09T08:19:35;4.07;;;2.20;;
7398;SDS011;3740;50.700;7.184;2022-09-09T08:22:21;6.78;;;2.45;;
7398;SDS011;3740;50.700;7.184;2022-09-09T08:25:07;5.30;;;2.53;;
7398;SDS011;3740;50.700;7.184;2022-09-09T08:27:53;8.20;;;6.07;;
7398;SDS011;3740;50.700;7.184;2022-09-09T08:30:39;6.13;;;3.53;;
7398;SDS011;3740;50.700;7.184;2022-09-09T08:33:25;4.00;;;1.95;;
7398;SDS011;3740;50.700;7.184;2022-09-09T08:36:12;3.65;;;1.90;;
7398;SDS011;3740;50.700;7.184;2022-09-09T08:39:03;6.63;;;2.40;;
7398;SDS011;3740;50.700;7.184;2022-09-09T08:51:17;4.93;;;2.50;;
7398;SDS011;3740;50.700;7.184;2022-09-09T08:54:03;6.15;;;2.25;;
7398;SDS011;3740;50.700;7.184;2022-09-09T08:56:49;6.00;;;2.00;;
7398;SDS011;3740;50.700;7.184;2022-09-09T08:59:36;7.07;;;2.42;;
7398;SDS011;3740;50.700;7.184;2022-09-09T09:02:27;5.47;;;2.10;;
7398;SDS011;3740;50.700;7.184;2022-09-09T09:05:33;3.85;;;1.80;;
7398;SDS011;3740;50.700;7.184;2022-09-09T09:08:30;5.68;;;2.13;;
7398;SDS011;3740;50.700;7.184;2022-09-09T09:11:38;4.20;;;1.70;;
7398;SDS011;3740;50.700;7.184;2022-09-09T09:14:28;4.13;;;2.08;;
7398;SDS011;3740;50.700;7.184;2022-09-09T09:17:17;6.50;;;1.90;;
7398;SDS011;3740;50.700;7.184;2022-09-09T09:20:06;5.00;;;1.83;;
7398;SDS011;3740;50.700;7.184;2022-09-09T09:23:00;4.65;;;2.03;;
7398;SDS011;3740;50.700;7.184;2022-09-09T09:25:48;3.42;;;1.90;;
7398;SDS011;3740;50.700;7.184;2022-09-09T09:28:37;4.70;;;2.15;;
7398;SDS011;3740;50.700;7.184;2022-09-09T09:31:25;3.13;;;1.88;;
7398;SDS011;3740;50.700;7.184;2022-09-09T09:34:12;5.00;;;1.83;;
7398;SDS011;3740;50.700;7.184;2022-09-09T09:36:58;2.97;;;1.40;;
7398;SDS011;3740;50.700;7.184;2022-09-09T09:39:49;4.38;;;1.88;;
7398;SDS011;3740;50.700;7.184;2022-09-09T09:42:35;2.53;;;1.67;;
7398;SDS011;3740;50.700;7.184;2022-09-09T09:48:27;4.32;;;1.75;;
7398;SDS011;3740;50.700;7.184;2022-09-09T09:51:14;4.60;;;2.30;;
7398;SDS011;3740;50.700;7.184;2022-09-09T09:54:28;3.65;;;2.00;;
7398;SDS011;3740;50.700;7.184;2022-09-09T09:57:14;3.47;;;1.80;;
7398;SDS011;3740;50.700;7.184;2022-09-09T10:00:21;3.13;;;1.63;;
7398;SDS011;3740;50.700;7.184;2022-09-09T10:03:24;4.07;;;1.95;;
7398;SDS011;3740;50.700;7.184;2022-09-09T10:06:12;4.57;;;1.83;;
7398;SDS011;3740;50.700;7.184;2022-09-09T10:08:58;2.88;;;1.80;;
7398;SDS011;3740;50.700;7.184;2022-09-09T10:11:48;2.45;;;1.45;;
7398;SDS011;3740;50.700;7.184;2022-09-09T10:18:21;3.33;;;1.80;;
7398;SDS011;3740;50.700;7.184;2022-09-09T10:21:20;4.40;;;2.20;;
7398;SDS011;3740;50.700;7.184;2022-09-09T10:24:28;2.75;;;1.80;;
7398;SDS011;3740;50.700;7.184;2022-09-09T10:27:37;4.40;;;1.88;;
7398;SDS011;3740;50.700;7.184;2022-09-09T10:30:29;3.45;;;1.90;;
7398;SDS011;3740;50.700;7.184;2022-09-09T10:33:51;6.30;;;2.08;;
7398;SDS011;3740;50.700;7.184;2022-09-09T10:36:36;3.80;;;1.73;;
7398;SDS011;3740;50.700;7.184;2022-09-09T10:39:36;3.50;;;1.75;;
7398;SDS011;3740;50.700;7.184;2022-09-09T10:42:26;4.32;;;1.65;;
7398;SDS011;3740;50.700;7.184;2022-09-09T10:51:11;3.17;;;1.73;;
7398;SDS011;3740;50.700;7.184;2022-09-09T11:03:19;3.53;;;1.67;;
7398;SDS011;3740;50.700;7.184;2022-09-09T11:06:13;2.42;;;1.40;;
7398;SDS011;3740;50.700;7.184;2022-09-09T11:09:02;2.40;;;1.60;;
7398;SDS011;3740;50.700;7.184;2022-09-09T11:11:52;2.83;;;1.52;;
7398;SDS011;3740;50.700;7.184;2022-09-09T11:14:43;2.28;;;1.20;;
7398;SDS011;3740;50.700;7.184;2022-09-09T11:17:41;3.58;;;1.67;;
7398;SDS011;3740;50.700;7.184;2022-09-09T11:20:34;4.45;;;2.08;;
7398;SDS011;3740;50.700;7.184;2022-09-09T11:23:39;2.13;;;1.60;;
7398;SDS011;3740;50.700;7.184;2022-09-09T11:26:29;2.60;;;1.30;;
7398;SDS011;3740;50.700;7.184;2022-09-09T11:29:27;3.17;;;1.58;;
7398;SDS011;3740;50.700;7.184;2022-09-09T11:38:47;2.33;;;1.05;;
7398;SDS011;3740;50.700;7.184;2022-09-09T11:41:36;3.60;;;1.73;;
7398;SDS011;3740;50.700;7.184;2022-09-09T11:44:27;1.70;;;1.38;;
7398;SDS011;3740;50.700;7.184;2022-09-09T11:47:17;3.72;;;1.50;;
7398;SDS011;3740;50.700;7.184;2022-09-09T11:53:05;3.90;;;1.42;;
7398;SDS011;3740;50.700;7.184;2022-09-09T11:56:07;3.83;;;1.33;;
7398;SDS011;3740;50.700;7.184;2022-09-09T11:59:00;2.80;;;1.27;;
7398;SDS011;3740;50.700;7.184;2022-09-09T12:02:13;2.67;;;1.58;;
7398;SDS011;3740;50.700;7.184;2022-09-09T12:05:13;1.90;;;1.40;;
7398;SDS011;3740;50.700;7.184;2022-09-09T12:08:01;2.60;;;1.27;;
7398;SDS011;3740;50.700;7.184;2022-09-09T12:10:58;2.85;;;1.52;;
7398;SDS011;3740;50.700;7.184;2022-09-09T12:13:52;3.17;;;1.45;;
7398;SDS011;3740;50.700;7.184;2022-09-09T12:16:38;3.13;;;1.25;;
7398;SDS011;3740;50.700;7.184;2022-09-09T12:19:25;3.08;;;1.30;;
7398;SDS011;3740;50.700;7.184;2022-09-09T12:22:17;1.92;;;1.48;;
7398;SDS011;3740;50.700;7.184;2022-09-09T12:34:41;2.35;;;1.63;;
7398;SDS011;3740;50.700;7.184;2022-09-09T12:37:35;2.90;;;1.67;;
7398;SDS011;3740;50.700;7.184;2022-09-09T12:40:24;2.67;;;1.52;;
7398;SDS011;3740;50.700;7.184;2022-09-09T12:43:16;2.20;;;1.70;;
7398;SDS011;3740;50.700;7.184;2022-09-09T12:46:08;2.35;;;1.50;;
7398;SDS011;3740;50.700;7.184;2022-09-09T12:49:01;3.10;;;1.63;;
7398;SDS011;3740;50.700;7.184;2022-09-09T12:51:47;1.85;;;1.50;;
7398;SDS011;3740;50.700;7.184;2022-09-09T12:54:34;3.28;;;1.15;;
7398;SDS011;3740;50.700;7.184;2022-09-09T12:57:22;3.72;;;2.10;;
7398;SDS011;3740;50.700;7.184;2022-09-09T13:00:17;3.78;;;2.20;;
7398;SDS011;3740;50.700;7.184;2022-09-09T13:03:17;4.38;;;2.25;;
7398;SDS011;3740;50.700;7.184;2022-09-09T13:06:12;4.50;;;1.77;;
7398;SDS011;3740;50.700;7.184;2022-09-09T13:09:03;2.75;;;1.52;;
7398;SDS011;3740;50.700;7.184;2022-09-09T13:11:53;3.42;;;1.65;;
7398;SDS011;3740;50.700;7.184;2022-09-09T13:14:43;2.92;;;1.50;;
7398;SDS011;3740;50.700;7.184;2022-09-09T13:17:31;5.93;;;1.85;;
7398;SDS011;3740;50.700;7.184;2022-09-09T13:20:18;3.78;;;1.67;;
7398;SDS011;3740;50.700;7.184;2022-09-09T13:23:04;4.13;;;1.77;;
7398;SDS011;3740;50.700;7.184;2022-09-09T13:25:54;3.92;;;1.90;;
7398;SDS011;3740;50.700;7.184;2022-09-09T13:29:16;4.25;;;2.55;;
7398;SDS011;3740;50.700;7.184;2022-09-09T13:32:18;3.83;;;1.60;;
7398;SDS011;3740;50.700;7.184;2022-09-09T13:35:22;2.45;;;1.50;;
7398;SDS011;3740;50.700;7.184;2022-09-09T13:38:09;3.65;;;1.67;;
7398;SDS011;3740;50.700;7.184;2022-09-09T13:40:58;3.17;;;1.50;;
7398;SDS011;3740;50.700;7.184;2022-09-09T13:43:50;2.70;;;1.50;;
7398;SDS011;3740;50.700;7.184;2022-09-09T13:46:38;2.83;;;1.10;;
7398;SDS011;3740;50.700;7.184;2022-09-09T13:49:26;2.08;;;0.90;;
7398;SDS011;3740;50.700;7.184;2022-09-09T13:52:18;4.20;;;1.38;;
7398;SDS011;3740;50.700;7.184;2022-09-09T13:55:04;2.25;;;1.60;;
7398;SDS011;3740;50.700;7.184;2022-09-09T13:57:52;3.03;;;1.30;;
7398;SDS011;3740;50.700;7.184;2022-09-09T14:00:39;1.40;;;0.82;;
7398;SDS011;3740;50.700;7.184;2022-09-09T14:03:25;2.67;;;1.58;;
7398;SDS011;3740;50.700;7.184;2022-09-09T14:06:11;3.95;;;1.48;;
7398;SDS011;3740;50.700;7.184;2022-09-09T14:08:57;2.97;;;1.33;;
7398;SDS011;3740;50.700;7.184;2022-09-09T14:11:44;2.13;;;1.02;;
7398;SDS011;3740;50.700;7.184;2022-09-09T14:14:31;3.15;;;1.00;;
7398;SDS011;3740;50.700;7.184;2022-09-09T14:17:17;1.55;;;0.90;;
7398;SDS011;3740;50.700;7.184;2022-09-09T14:20:03;1.35;;;0.93;;
7398;SDS011;3740;50.700;7.184;2022-09-09T14:22:54;1.70;;;0.80;;
7398;SDS011;3740;50.700;7.184;2022-09-09T14:25:43;1.35;;;0.98;;
7398;SDS011;3740;50.700;7.184;2022-09-09T14:28:29;3.95;;;1.20;;
7398;SDS011;3740;50.700;7.184;2022-09-09T14:31:14;2.20;;;0.85;;
7398;SDS011;3740;50.700;7.184;2022-09-09T14:34:02;1.95;;;1.20;;
7398;SDS011;3740;50.700;7.184;2022-09-09T14:36:49;2.40;;;1.00;;
7398;SDS011;3740;50.700;7.184;2022-09-09T14:39:36;1.02;;;0.65;;
7398;SDS011;3740;50.700;7.184;2022-09-09T14:42:22;1.58;;;0.85;;
7398;SDS011;3740;50.700;7.184;2022-09-09T14:45:08;2.20;;;0.98;;
7398;SDS011;3740;50.700;7.184;2022-09-09T14:47:55;1.50;;;0.90;;
7398;SDS011;3740;50.700;7.184;2022-09-09T14:50:41;1.50;;;0.95;;
7398;SDS011;3740;50.700;7.184;2022-09-09T14:53:27;2.22;;;1.05;;
7398;SDS011;3740;50.700;7.184;2022-09-09T14:56:14;1.90;;;1.05;;
7398;SDS011;3740;50.700;7.184;2022-09-09T14:59:05;2.17;;;1.25;;
7398;SDS011;3740;50.700;7.184;2022-09-09T15:01:51;1.17;;;0.80;;
7398;SDS011;3740;50.700;7.184;2022-09-09T15:04:37;1.95;;;1.10;;
7398;SDS011;3740;50.700;7.184;2022-09-09T15:07:23;2.05;;;1.05;;
7398;SDS011;3740;50.700;7.184;2022-09-09T15:10:09;1.38;;;0.77;;
7398;SDS011;3740;50.700;7.184;2022-09-09T15:12:56;2.08;;;1.15;;
7398;SDS011;3740;50.700;7.184;2022-09-09T15:15:42;2.03;;;1.13;;
7398;SDS011;3740;50.700;7.184;2022-09-09T15:18:29;1.42;;;1.10;;
7398;SDS011;3740;50.700;7.184;2022-09-09T15:21:16;2.60;;;1.40;;
7398;SDS011;3740;50.700;7.184;2022-09-09T15:24:07;2.20;;;1.45;;
7398;SDS011;3740;50.700;7.184;2022-09-09T15:26:53;3.45;;;1.60;;
7398;SDS011;3740;50.700;7.184;2022-09-09T15:29:40;2.30;;;1.20;;
7398;SDS011;3740;50.700;7.184;2022-09-09T15:32:27;1.35;;;1.08;;
7398;SDS011;3740;50.700;7.184;2022-09-09T15:35:13;1.55;;;1.33;;
7398;SDS011;3740;50.700;7.184;2022-09-09T15:38:01;2.75;;;1.63;;
7398;SDS011;3740;50.700;7.184;2022-09-09T15:40:54;4.35;;;1.70;;
7398;SDS011;3740;50.700;7.184;2022-09-09T15:43:47;2.17;;;1.50;;
7398;SDS011;3740;50.700;7.184;2022-09-09T15:46:36;2.05;;;1.23;;
7398;SDS011;3740;50.700;7.184;2022-09-09T15:49:26;1.67;;;1.00;;
7398;SDS011;3740;50.700;7.184;2022-09-09T15:52:12;1.90;;;1.33;;
7398;SDS011;3740;50.700;7.184;2022-09-09T15:54:58;2.83;;;1.60;;
7398;SDS011;3740;50.700;7.184;2022-09-09T15:57:44;1.40;;;1.15;;
7398;SDS011;3740;50.700;7.184;2022-09-09T16:00:30;1.60;;;1.25;;
7398;SDS011;3740;50.700;7.184;2022-09-09T16:03:16;1.15;;;1.02;;
7398;SDS011;3740;50.700;7.184;2022-09-09T16:06:02;1.85;;;1.20;;
7398;SDS011;3740;50.700;7.184;2022-09-09T16:08:50;2.20;;;1.08;;
7398;SDS011;3740;50.700;7.184;2022-09-09T16:11:38;1.70;;;1.00;;
7398;SDS011;3740;50.700;7.184;2022-09-09T16:14:24;2.13;;;1.25;;
7398;SDS011;3740;50.700;7.184;2022-09-09T16:17:10;1.20;;;1.10;;
7398;SDS011;3740;50.700;7.184;2022-09-09T16:19:56;2.38;;;1.10;;
7398;SDS011;3740;50.700;7.184;2022-09-09T16:22:42;2.40;;;1.05;;
7398;SDS011;3740;50.700;7.184;2022-09-09T16:25:28;2.67;;;1.25;;
7398;SDS011;3740;50.700;7.184;2022-09-09T16:28:14;2.55;;;1.25;;
7398;SDS011;3740;50.700;7.184;2022-09-09T16:31:03;2.05;;;1.25;;
7398;SDS011;3740;50.700;7.184;2022-09-09T16:33:50;2.92;;;1.05;;
7398;SDS011;3740;50.700;7.184;2022-09-09T16:36:37;1.60;;;1.13;;
7398;SDS011;3740;50.700;7.184;2022-09-09T16:39:24;2.45;;;1.23;;
7398;SDS011;3740;50.700;7.184;2022-09-09T16:42:10;2.28;;;1.15;;
7398;SDS011;3740;50.700;7.184;2022-09-09T16:44:55;1.80;;;1.15;;
7398;SDS011;3740;50.700;7.184;2022-09-09T16:47:41;2.35;;;1.50;;
7398;SDS011;3740;50.700;7.184;2022-09-09T16:50:27;2.45;;;1.73;;
7398;SDS011;3740;50.700;7.184;2022-09-09T16:53:15;3.40;;;1.77;;
7398;SDS011;3740;50.700;7.184;2022-09-09T16:56:05;3.75;;;2.38;;
7398;SDS011;3740;50.700;7.184;2022-09-09T16:58:53;4.18;;;1.60;;
7398;SDS011;3740;50.700;7.184;2022-09-09T17:01:42;2.40;;;1.90;;
7398;SDS011;3740;50.700;7.184;2022-09-09T17:04:28;2.70;;;1.30;;
7398;SDS011;3740;50.700;7.184;2022-09-09T17:07:16;3.08;;;1.70;;
7398;SDS011;3740;50.700;7.184;2022-09-09T17:10:03;2.20;;;1.50;;
7398;SDS011;3740;50.700;7.184;2022-09-09T17:12:51;3.13;;;2.00;;
7398;SDS011;3740;50.700;7.184;2022-09-09T17:15:40;4.03;;;1.95;;
7398;SDS011;3740;50.700;7.184;2022-09-09T17:18:27;4.32;;;1.67;;
7398;SDS011;3740;50.700;7.184;2022-09-09T17:21:15;2.17;;;1.33;;
7398;SDS011;3740;50.700;7.184;2022-09-09T17:24:03;3.35;;;1.98;;
7398;SDS011;3740;50.700;7.184;2022-09-09T17:26:49;2.20;;;1.90;;
7398;SDS011;3740;50.700;7.184;2022-09-09T17:29:35;2.38;;;1.50;;
7398;SDS011;3740;50.700;7.184;2022-09-09T17:32:21;3.40;;;1.65;;
7398;SDS011;3740;50.700;7.184;2022-09-09T17:35:07;2.97;;;1.85;;
7398;SDS011;3740;50.700;7.184;2022-09-09T17:37:53;2.22;;;1.50;;
7398;SDS011;3740;50.700;7.184;2022-09-09T17:40:39;2.05;;;1.58;;
7398;SDS011;3740;50.700;7.184;2022-09-09T17:43:25;2.17;;;1.10;;
7398;SDS011;3740;50.700;7.184;2022-09-09T17:46:12;2.15;;;1.27;;
7398;SDS011;3740;50.700;7.184;2022-09-09T17:49:01;1.88;;;1.27;;
7398;SDS011;3740;50.700;7.184;2022-09-09T17:51:50;1.33;;;1.20;;
7398;SDS011;3740;50.700;7.184;2022-09-09T17:54:36;2.10;;;1.07;;
7398;SDS011;3740;50.700;7.184;2022-09-09T17:57:22;1.35;;;1.13;;
7398;SDS011;3740;50.700;7.184;2022-09-09T18:00:08;1.85;;;1.40;;
7398;SDS011;3740;50.700;7.184;2022-09-09T18:02:54;2.38;;;1.95;;
7398;SDS011;3740;50.700;7.184;2022-09-09T18:05:40;3.72;;;2.00;;
7398;SDS011;3740;50.700;7.184;2022-09-09T18:08:26;3.03;;;2.15;;
7398;SDS011;3740;50.700;7.184;2022-09-09T18:11:12;2.53;;;1.85;;
7398;SDS011;3740;50.700;7.184;2022-09-09T18:14:00;1.90;;;1.40;;
7398;SDS011;3740;50.700;7.184;2022-09-09T18:16:47;4.93;;;2.22;;
7398;SDS011;3740;50.700;7.184;2022-09-09T18:19:33;2.08;;;1.58;;
7398;SDS011;3740;50.700;7.184;2022-09-09T18:22:20;3.15;;;1.65;;
7398;SDS011;3740;50.700;7.184;2022-09-09T18:25:07;2.27;;;1.40;;
7398;SDS011;3740;50.700;7.184;2022-09-09T18:27:53;1.83;;;1.45;;
7398;SDS011;3740;50.700;7.184;2022-09-09T18:30:41;2.60;;;1.80;;
7398;SDS011;3740;50.700;7.184;2022-09-09T18:33:27;3.20;;;2.10;;
7398;SDS011;3740;50.700;7.184;2022-09-09T18:36:15;3.28;;;2.10;;
7398;SDS011;3740;50.700;7.184;2022-09-09T18:39:03;3.47;;;2.53;;
7398;SDS011;3740;50.700;7.184;2022-09-09T18:41:51;3.05;;;2.42;;
7398;SDS011;3740;50.700;7.184;2022-09-09T18:44:39;3.38;;;2.10;;
7398;SDS011;3740;50.700;7.184;2022-09-09T18:47:25;3.47;;;2.17;;
7398;SDS011;3740;50.700;7.184;2022-09-09T18:50:11;1.60;;;1.40;;
7398;SDS011;3740;50.700;7.184;2022-09-09T18:52:57;2.90;;;2.08;;
7398;SDS011;3740;50.700;7.184;2022-09-09T18:55:43;4.27;;;2.20;;